createdAt,value
2019-02-19T00:00:03.767Z,1021.2
2019-02-19T00:01:03.447Z,1021.2
2019-02-19T00:02:03.644Z,1021.2
2019-02-19T00:03:02.891Z,1021.2
2019-02-19T00:04:03.371Z,1021.2
2019-02-19T00:05:03.889Z,1021.2
2019-02-19T00:06:03.547Z,1021.2
2019-02-19T00:07:03.141Z,1021.2
2019-02-19T00:08:03.396Z,1021.2
2019-02-19T00:09:03.540Z,1021.2
2019-02-19T00:10:03.064Z,1021.3
2019-02-19T00:11:02.852Z,1021.2
2019-02-19T00:12:03.543Z,1021.2
2019-02-19T00:13:02.677Z,1021.2
2019-02-19T00:14:03.226Z,1021.2
2019-02-19T00:15:09.037Z,1021.2
2019-02-19T00:16:03.081Z,1021.2
2019-02-19T00:17:03.500Z,1021.2
2019-02-19T00:18:03.765Z,1021.2
2019-02-19T00:19:03.291Z,1021.2
2019-02-19T00:20:03.640Z,1021.2
2019-02-19T00:21:03.202Z,1021.2
2019-02-19T00:22:03.481Z,1021.2
2019-02-19T00:23:03.887Z,1021.2
2019-02-19T00:24:03.170Z,1021.2
2019-02-19T00:25:03.690Z,1021.2
2019-02-19T00:26:03.003Z,1021.2
2019-02-19T00:27:03.881Z,1021.3
2019-02-19T00:28:03.907Z,1021.3
2019-02-19T00:29:03.260Z,1021.3
2019-02-19T00:30:03.177Z,1021.2
2019-02-19T00:31:03.773Z,1021.2
2019-02-19T00:32:03.913Z,1021.3
2019-02-19T00:33:02.959Z,1021.3
2019-02-19T00:34:03.221Z,1021.3
2019-02-19T00:35:03.815Z,1021.3
2019-02-19T00:36:05.231Z,1021.3
2019-02-19T00:37:03.281Z,1021.2
2019-02-19T00:38:03.876Z,1021.3
2019-02-19T00:39:02.970Z,1021.3
2019-02-19T00:40:03.196Z,1021.3
2019-02-19T00:41:03.797Z,1021.3
2019-02-19T00:42:03.081Z,1021.3
2019-02-19T00:43:04.085Z,1021.2
2019-02-19T00:44:03.299Z,1021.2
2019-02-19T00:45:03.813Z,1021.3
2019-02-19T00:46:03.203Z,1021.3
2019-02-19T00:47:03.759Z,1021.3
2019-02-19T00:48:03.101Z,1021.3
2019-02-19T00:49:03.232Z,1021.4
2019-02-19T00:50:03.931Z,1021.2
2019-02-19T00:51:03.093Z,1021.3
2019-02-19T00:52:03.850Z,1021.3
2019-02-19T00:53:03.055Z,1021.3
2019-02-19T00:54:03.178Z,1021.4
2019-02-19T00:55:03.365Z,1021.4
2019-02-19T00:56:03.675Z,1021.4
2019-02-19T00:57:03.942Z,1021.4
2019-02-19T00:58:03.609Z,1021.4
2019-02-19T00:59:03.931Z,1021.4
2019-02-19T01:00:03.583Z,1021.4
2019-02-19T01:01:03.862Z,1021.5
2019-02-19T01:02:03.327Z,1021.4
2019-02-19T01:03:03.742Z,1021.4
2019-02-19T01:04:02.966Z,1021.5
2019-02-19T01:05:03.721Z,1021.4
2019-02-19T01:06:03.081Z,1021.5
2019-02-19T01:07:03.869Z,1021.5
2019-02-19T01:08:03.486Z,1021.5
2019-02-19T01:09:03.989Z,1021.7
2019-02-19T01:10:03.746Z,1021.7
2019-02-19T01:11:04.120Z,1021.6
2019-02-19T01:12:03.099Z,1021.6
2019-02-19T01:13:03.938Z,1021.7
2019-02-19T01:14:03.241Z,1021.6
2019-02-19T01:15:02.959Z,1021.6
2019-02-19T01:16:03.171Z,1021.7
2019-02-19T01:17:03.969Z,1021.7
2019-02-19T01:18:03.017Z,1021.6
2019-02-19T01:19:03.839Z,1021.5
2019-02-19T01:20:03.098Z,1021.6
2019-02-19T01:21:03.865Z,1021.6
2019-02-19T01:22:03.296Z,1021.4
2019-02-19T01:23:03.745Z,1021.6
2019-02-19T01:24:03.125Z,1021.5
2019-02-19T01:25:04.141Z,1021.4
2019-02-19T01:26:03.012Z,1021.4
2019-02-19T01:27:03.637Z,1021.4
2019-02-19T01:28:03.043Z,1021.5
2019-02-19T01:29:03.603Z,1021.4
2019-02-19T01:30:03.998Z,1021.5
2019-02-19T01:31:03.064Z,1021.5
2019-02-19T01:32:03.555Z,1021.6
2019-02-19T01:33:03.175Z,1021.5
2019-02-19T01:34:03.599Z,1021.6
2019-02-19T01:35:03.897Z,1021.5
2019-02-19T01:36:03.488Z,1021.5
2019-02-19T01:37:03.175Z,1021.5
2019-02-19T01:38:03.377Z,1021.5
2019-02-19T01:39:02.979Z,1021.5
2019-02-19T01:40:03.628Z,1021.4
2019-02-19T01:41:04.383Z,1021.4
2019-02-19T01:42:03.374Z,1021.4
2019-02-19T01:43:03.629Z,1021.4
2019-02-19T01:44:03.049Z,1021.4
2019-02-19T01:45:03.864Z,1021.4
2019-02-19T01:46:02.965Z,1021.4
2019-02-19T01:47:03.304Z,1021.3
2019-02-19T01:48:02.942Z,1021.5
2019-02-19T01:49:03.352Z,1021.4
2019-02-19T01:50:03.849Z,1021.5
2019-02-19T01:51:03.223Z,1021.4
2019-02-19T01:52:03.567Z,1021.5
2019-02-19T01:53:03.018Z,1021.4
2019-02-19T01:54:03.825Z,1021.5
2019-02-19T01:55:02.994Z,1021.5
2019-02-19T01:56:03.547Z,1021.4
2019-02-19T01:57:02.974Z,1021.4
2019-02-19T01:58:03.274Z,1021.4
2019-02-19T01:59:03.624Z,1021.4
2019-02-19T02:00:02.857Z,1021.4
2019-02-19T02:01:03.561Z,1021.4
2019-02-19T02:02:03.838Z,1021.4
2019-02-19T02:03:03.458Z,1021.4
2019-02-19T02:04:03.555Z,1021.4
2019-02-19T02:05:03.378Z,1021.4
2019-02-19T02:06:03.772Z,1021.3
2019-02-19T02:07:04.922Z,1021.4
2019-02-19T02:08:03.651Z,1021.5
2019-02-19T02:09:03.124Z,1021.2
2019-02-19T02:10:03.614Z,1021.5
2019-02-19T02:11:03.114Z,1021.5
2019-02-19T02:12:03.620Z,1021.5
2019-02-19T02:13:03.322Z,1021.4
2019-02-19T02:14:03.337Z,1021.4
2019-02-19T02:15:03.014Z,1021.5
2019-02-19T02:16:02.947Z,1021.4
2019-02-19T02:17:03.838Z,1021.5
2019-02-19T02:18:03.001Z,1021.5
2019-02-19T02:19:04.401Z,1021.5
2019-02-19T02:20:03.388Z,1021.7
2019-02-19T02:21:03.595Z,1021.6
2019-02-19T02:22:03.228Z,1021.6
2019-02-19T02:23:03.801Z,1021.5
2019-02-19T02:24:03.061Z,1021.5
2019-02-19T02:25:03.641Z,1021.5
2019-02-19T02:26:03.182Z,1021.5
2019-02-19T02:27:03.355Z,1021.5
2019-02-19T02:28:02.974Z,1021.5
2019-02-19T02:29:03.397Z,1021.4
2019-02-19T02:30:03.046Z,1021.4
2019-02-19T02:31:03.495Z,1021.4
2019-02-19T02:32:03.996Z,1021.4
2019-02-19T02:33:03.322Z,1021.3
2019-02-19T02:34:03.762Z,1021.3
2019-02-19T02:35:03.202Z,1021.3
2019-02-19T02:36:03.849Z,1021.4
2019-02-19T02:37:03.831Z,1021.4
2019-02-19T02:38:03.685Z,1021.4
2019-02-19T02:39:03.290Z,1021.5
2019-02-19T02:40:03.412Z,1021.3
2019-02-19T02:41:03.049Z,1021.3
2019-02-19T02:42:03.279Z,1021.4
2019-02-19T02:43:03.905Z,1021.3
2019-02-19T02:44:03.189Z,1021.5
2019-02-19T02:45:03.604Z,1021.5
2019-02-19T02:46:03.818Z,1021.5
2019-02-19T02:47:03.583Z,1021.5
2019-02-19T02:48:03.788Z,1021.4
2019-02-19T02:49:03.267Z,1021.4
2019-02-19T02:50:03.871Z,1021.4
2019-02-19T02:51:03.325Z,1021.5
2019-02-19T02:52:03.553Z,1021.3
2019-02-19T02:53:03.066Z,1021.4
2019-02-19T02:54:03.687Z,1021.4
2019-02-19T02:55:03.250Z,1021.4
2019-02-19T02:56:03.432Z,1021.4
2019-02-19T02:57:03.279Z,1021.4
2019-02-19T02:58:03.432Z,1021.5
2019-02-19T02:59:03.121Z,1021.4
2019-02-19T03:00:03.908Z,1021.3
2019-02-19T03:01:03.811Z,1021.4
2019-02-19T03:02:03.431Z,1021.4
2019-02-19T03:03:03.953Z,1021.4
2019-02-19T03:04:03.340Z,1021.4
2019-02-19T03:05:03.661Z,1021.4
2019-02-19T03:06:03.841Z,1021.4
2019-02-19T03:07:03.545Z,1021.4
2019-02-19T03:08:04.111Z,1021.5
2019-02-19T03:09:03.407Z,1021.5
2019-02-19T03:10:04.113Z,1021.5
2019-02-19T03:11:03.249Z,1021.5
2019-02-19T03:12:03.852Z,1021.5
2019-02-19T03:13:03.168Z,1021.6
2019-02-19T03:14:03.739Z,1021.5
2019-02-19T03:15:03.047Z,1021.5
2019-02-19T03:16:03.540Z,1021.7
2019-02-19T03:17:03.203Z,1021.5
2019-02-19T03:18:03.678Z,1021.6
2019-02-19T03:19:03.025Z,1021.5
2019-02-19T03:20:03.883Z,1021.5
2019-02-19T03:21:03.236Z,1021.5
2019-02-19T03:22:03.922Z,1021.6
2019-02-19T03:23:03.109Z,1021.5
2019-02-19T03:24:03.080Z,1021.5
2019-02-19T03:25:04.034Z,1021.5
2019-02-19T03:26:03.271Z,1021.6
2019-02-19T03:27:03.715Z,1021.5
2019-02-19T03:28:03.425Z,1021.6
2019-02-19T03:29:03.819Z,1021.6
2019-02-19T03:30:03.676Z,1021.7
2019-02-19T03:31:03.832Z,1021.6
2019-02-19T03:32:03.170Z,1021.6
2019-02-19T03:33:03.771Z,1021.7
2019-02-19T03:34:03.024Z,1021.6
2019-02-19T03:35:03.754Z,1021.6
2019-02-19T03:36:03.239Z,1021.6
2019-02-19T03:37:03.649Z,1021.7
2019-02-19T03:38:03.876Z,1021.6
2019-02-19T03:39:03.805Z,1021.6
2019-02-19T03:40:03.364Z,1021.5
2019-02-19T03:41:03.892Z,1021.7
2019-02-19T03:42:03.099Z,1021.7
2019-02-19T03:43:03.696Z,1021.6
2019-02-19T03:44:03.985Z,1021.7
2019-02-19T03:45:03.646Z,1021.7
2019-02-19T03:46:12.992Z,1021.6
2019-02-19T03:47:03.529Z,1021.7
2019-02-19T03:48:03.723Z,1021.7
2019-02-19T03:49:03.154Z,1021.7
2019-02-19T03:50:03.566Z,1021.7
2019-02-19T03:51:03.036Z,1021.8
2019-02-19T03:52:03.474Z,1021.8
2019-02-19T03:53:03.149Z,1021.7
2019-02-19T03:54:03.957Z,1021.8
2019-02-19T03:55:03.169Z,1021.8
2019-02-19T03:56:03.485Z,1021.8
2019-02-19T03:57:03.485Z,1021.8
2019-02-19T03:58:03.114Z,1021.8
2019-02-19T03:59:03.629Z,1021.8
2019-02-19T04:00:03.805Z,1021.7
2019-02-19T04:01:03.376Z,1021.7
2019-02-19T04:02:03.604Z,1021.9
2019-02-19T04:03:03.117Z,1021.7
2019-02-19T04:04:03.638Z,1021.7
2019-02-19T04:05:03.297Z,1021.7
2019-02-19T04:06:03.617Z,1021.7
2019-02-19T04:07:03.847Z,1021.8
2019-02-19T04:08:03.324Z,1021.7
2019-02-19T04:09:03.883Z,1021.7
2019-02-19T04:10:03.363Z,1021.7
2019-02-19T04:11:03.785Z,1021.7
2019-02-19T04:12:03.230Z,1021.7
2019-02-19T04:13:03.751Z,1021.7
2019-02-19T04:14:03.433Z,1021.7
2019-02-19T04:15:03.739Z,1021.8
2019-02-19T04:16:02.945Z,1021.8
2019-02-19T04:17:03.867Z,1021.7
2019-02-19T04:18:03.210Z,1021.8
2019-02-19T04:19:04.037Z,1021.7
2019-02-19T04:20:03.877Z,1021.8
2019-02-19T04:21:03.514Z,1021.8
2019-02-19T04:22:03.874Z,1021.8
2019-02-19T04:23:03.527Z,1021.8
2019-02-19T04:24:03.920Z,1021.7
2019-02-19T04:25:03.531Z,1021.8
2019-02-19T04:26:03.195Z,1021.8
2019-02-19T04:27:03.360Z,1021.8
2019-02-19T04:28:03.571Z,1021.9
2019-02-19T04:29:03.379Z,1021.8
2019-02-19T04:30:03.058Z,1021.8
2019-02-19T04:31:03.554Z,1021.7
2019-02-19T04:32:03.694Z,1021.8
2019-02-19T04:33:03.262Z,1021.8
2019-02-19T04:34:03.787Z,1021.8
2019-02-19T04:35:03.365Z,1021.8
2019-02-19T04:36:03.615Z,1021.8
2019-02-19T04:37:03.390Z,1021.8
2019-02-19T04:38:03.720Z,1021.8
2019-02-19T04:39:03.344Z,1021.9
2019-02-19T04:40:03.974Z,1021.8
2019-02-19T04:41:03.107Z,1021.8
2019-02-19T04:42:03.461Z,1021.8
2019-02-19T04:43:03.852Z,1021.9
2019-02-19T04:44:03.606Z,1021.8
2019-02-19T04:45:04.037Z,1021.9
2019-02-19T04:46:03.246Z,1022
2019-02-19T04:47:03.496Z,1021.9
2019-02-19T04:48:03.297Z,1021.9
2019-02-19T04:49:03.623Z,1021.9
2019-02-19T04:50:03.265Z,1021.9
2019-02-19T04:51:03.335Z,1021.9
2019-02-19T04:52:03.090Z,1021.8
2019-02-19T04:53:03.582Z,1021.9
2019-02-19T04:54:03.158Z,1021.8
2019-02-19T04:55:03.564Z,1021.9
2019-02-19T04:56:03.059Z,1022
2019-02-19T04:57:03.449Z,1021.9
2019-02-19T04:58:03.058Z,1022
2019-02-19T04:59:03.584Z,1021.9
2019-02-19T05:00:03.067Z,1021.9
2019-02-19T05:01:03.279Z,1021.9
2019-02-19T05:02:03.687Z,1022
2019-02-19T05:03:03.370Z,1022
2019-02-19T05:04:03.738Z,1021.9
2019-02-19T05:05:03.200Z,1021.9
2019-02-19T05:06:03.518Z,1021.9
2019-02-19T05:07:03.277Z,1021.9
2019-02-19T05:08:03.808Z,1022
2019-02-19T05:09:03.819Z,1021.9
2019-02-19T05:10:03.796Z,1021.9
2019-02-19T05:11:03.085Z,1022
2019-02-19T05:12:03.220Z,1021.9
2019-02-19T05:13:03.733Z,1021.8
2019-02-19T05:14:03.227Z,1021.8
2019-02-19T05:15:03.217Z,1021.9
2019-02-19T05:16:03.389Z,1021.9
2019-02-19T05:17:03.678Z,1021.9
2019-02-19T05:18:03.363Z,1021.9
2019-02-19T05:19:03.807Z,1021.9
2019-02-19T05:20:03.158Z,1022
2019-02-19T05:21:03.556Z,1021.9
2019-02-19T05:22:03.943Z,1021.9
2019-02-19T05:23:03.262Z,1022
2019-02-19T05:24:03.686Z,1022
2019-02-19T05:25:03.207Z,1021.9
2019-02-19T05:26:03.960Z,1021.9
2019-02-19T05:27:03.322Z,1022
2019-02-19T05:28:03.845Z,1022
2019-02-19T05:29:03.446Z,1021.9
2019-02-19T05:30:03.764Z,1021.9
2019-02-19T05:31:03.434Z,1021.9
2019-02-19T05:32:03.819Z,1021.9
2019-02-19T05:33:03.118Z,1022
2019-02-19T05:34:03.457Z,1022
2019-02-19T05:35:03.845Z,1022
2019-02-19T05:36:03.003Z,1022
2019-02-19T05:37:03.417Z,1021.9
2019-02-19T05:38:03.335Z,1021.9
2019-02-19T05:39:03.890Z,1021.9
2019-02-19T05:40:03.544Z,1022
2019-02-19T05:41:03.831Z,1022
2019-02-19T05:42:03.493Z,1022
2019-02-19T05:43:03.887Z,1022
2019-02-19T05:44:03.304Z,1022.1
2019-02-19T05:45:03.856Z,1022.1
2019-02-19T05:46:03.385Z,1022
2019-02-19T05:47:03.672Z,1022
2019-02-19T05:48:05.690Z,1022
2019-02-19T05:49:03.595Z,1022
2019-02-19T05:50:03.151Z,1022.1
2019-02-19T05:51:03.393Z,1022
2019-02-19T05:52:03.241Z,1022
2019-02-19T05:53:03.930Z,1022
2019-02-19T05:54:03.413Z,1022
2019-02-19T05:55:03.782Z,1022
2019-02-19T05:56:02.997Z,1022
2019-02-19T05:57:03.739Z,1022
2019-02-19T05:58:03.041Z,1022
2019-02-19T05:59:03.239Z,1022.1
2019-02-19T06:00:03.137Z,1022
2019-02-19T06:01:03.229Z,1022.1
2019-02-19T06:02:03.802Z,1022.1
2019-02-19T06:03:02.880Z,1022
2019-02-19T06:04:03.781Z,1022.1
2019-02-19T06:05:03.171Z,1022
2019-02-19T06:06:03.445Z,1022
2019-02-19T06:07:03.016Z,1022.1
2019-02-19T06:08:03.595Z,1022.1
2019-02-19T06:09:03.766Z,1022
2019-02-19T06:10:03.526Z,1022.1
2019-02-19T06:11:03.823Z,1022
2019-02-19T06:12:03.245Z,1022.1
2019-02-19T06:13:03.048Z,1022.1
2019-02-19T06:14:03.245Z,1022.1
2019-02-19T06:15:03.591Z,1022.1
2019-02-19T06:16:03.275Z,1022.1
2019-02-19T06:17:03.377Z,1022.1
2019-02-19T06:18:03.844Z,1022.1
2019-02-19T06:19:03.479Z,1022.2
2019-02-19T06:20:03.021Z,1022.3
2019-02-19T06:21:03.359Z,1022.2
2019-02-19T06:22:04.096Z,1022.2
2019-02-19T06:23:03.576Z,1022.3
2019-02-19T06:24:02.897Z,1022.3
2019-02-19T06:25:03.602Z,1022.2
2019-02-19T06:26:03.694Z,1022.2
2019-02-19T06:27:03.050Z,1022.2
2019-02-19T06:28:03.758Z,1022.2
2019-02-19T06:29:03.063Z,1022.3
2019-02-19T06:30:03.836Z,1022.2
2019-02-19T06:31:03.474Z,1022.3
2019-02-19T06:32:03.673Z,1022.3
2019-02-19T06:33:03.091Z,1022.4
2019-02-19T06:34:03.658Z,1022.3
2019-02-19T06:35:03.511Z,1022.3
2019-02-19T06:36:03.619Z,1022.4
2019-02-19T06:37:03.217Z,1022.3
2019-02-19T06:38:03.480Z,1022.4
2019-02-19T06:39:03.699Z,1022.4
2019-02-19T06:40:03.355Z,1022.3
2019-02-19T06:41:03.563Z,1022.4
2019-02-19T06:42:03.077Z,1022.4
2019-02-19T06:43:03.662Z,1022.4
2019-02-19T06:44:03.089Z,1022.4
2019-02-19T06:45:03.756Z,1022.5
2019-02-19T06:46:03.256Z,1022.5
2019-02-19T06:47:07.534Z,1022.5
2019-02-19T06:48:03.044Z,1022.3
2019-02-19T06:49:03.448Z,1022.4
2019-02-19T06:50:03.221Z,1022.4
2019-02-19T06:51:03.197Z,1022.5
2019-02-19T06:52:03.976Z,1022.4
2019-02-19T06:53:03.053Z,1022.4
2019-02-19T06:54:02.877Z,1022.3
2019-02-19T06:55:03.441Z,1022.5
2019-02-19T06:56:02.847Z,1022.5
2019-02-19T06:57:03.200Z,1022.5
2019-02-19T06:58:03.901Z,1022.5
2019-02-19T06:59:03.343Z,1022.5
2019-02-19T07:00:04.019Z,1022.6
2019-02-19T07:01:03.341Z,1022.6
2019-02-19T07:02:03.113Z,1022.6
2019-02-19T07:03:03.493Z,1022.6
2019-02-19T07:04:03.048Z,1022.5
2019-02-19T07:05:03.267Z,1022.6
2019-02-19T07:06:03.060Z,1022.6
2019-02-19T07:07:03.120Z,1022.5
2019-02-19T07:08:03.826Z,1022.6
2019-02-19T07:09:03.223Z,1022.4
2019-02-19T07:10:03.693Z,1022.4
2019-02-19T07:11:03.111Z,1022.4
2019-02-19T07:12:03.987Z,1022.3
2019-02-19T07:13:03.376Z,1022.4
2019-02-19T07:14:03.473Z,1022.4
2019-02-19T07:15:03.329Z,1022.4
2019-02-19T07:16:03.738Z,1022.4
2019-02-19T07:17:03.845Z,1022.3
2019-02-19T07:18:03.555Z,1022.5
2019-02-19T07:19:02.964Z,1022.3
2019-02-19T07:20:03.519Z,1022.4
2019-02-19T07:21:03.073Z,1022.3
2019-02-19T07:22:03.434Z,1022.3
2019-02-19T07:23:03.015Z,1022.3
2019-02-19T07:24:05.178Z,1022.3
2019-02-19T07:25:03.670Z,1022.3
2019-02-19T07:26:03.286Z,1022.3
2019-02-19T07:27:03.699Z,1022.3
2019-02-19T07:28:03.102Z,1022.3
2019-02-19T07:29:03.693Z,1022.2
2019-02-19T07:30:03.926Z,1022.3
2019-02-19T07:31:03.282Z,1022.2
2019-02-19T07:32:03.238Z,1022.1
2019-02-19T07:33:03.776Z,1022.1
2019-02-19T07:34:03.157Z,1022.2
2019-02-19T07:35:03.634Z,1022.1
2019-02-19T07:36:02.981Z,1022
2019-02-19T07:37:03.449Z,1022.1
2019-02-19T07:38:03.862Z,1022.1
2019-02-19T07:39:03.338Z,1022.1
2019-02-19T07:40:03.143Z,1022
2019-02-19T07:41:03.466Z,1022.1
2019-02-19T07:42:03.775Z,1022.1
2019-02-19T07:43:03.447Z,1022.1
2019-02-19T07:44:03.440Z,1022.1
2019-02-19T07:45:03.501Z,1022.1
2019-02-19T07:46:03.116Z,1022
2019-02-19T07:47:03.528Z,1022
2019-02-19T07:48:03.728Z,1022
2019-02-19T07:49:03.237Z,1022
2019-02-19T07:50:04.016Z,1021.9
2019-02-19T07:51:02.999Z,1021.8
2019-02-19T07:52:03.626Z,1021.9
2019-02-19T07:53:03.151Z,1021.8
2019-02-19T07:54:03.676Z,1021.9
2019-02-19T07:55:03.089Z,1021.8
2019-02-19T07:56:03.421Z,1021.8
2019-02-19T07:57:03.813Z,1021.8
2019-02-19T07:58:03.352Z,1021.8
2019-02-19T07:59:03.959Z,1021.8
2019-02-19T08:00:03.273Z,1021.9
2019-02-19T08:01:03.785Z,1021.9
2019-02-19T08:02:03.994Z,1021.8
2019-02-19T08:03:05.397Z,1021.9
2019-02-19T08:04:03.051Z,1021.7
2019-02-19T08:05:03.704Z,1021.8
2019-02-19T08:06:03.707Z,1021.7
2019-02-19T08:07:03.339Z,1021.8
2019-02-19T08:08:03.764Z,1021.7
2019-02-19T08:09:03.425Z,1021.7
2019-02-19T08:10:03.999Z,1021.6
2019-02-19T08:11:03.411Z,1021.7
2019-02-19T08:12:03.876Z,1021.8
2019-02-19T08:13:03.468Z,1021.7
2019-02-19T08:14:03.949Z,1021.6
2019-02-19T08:15:03.256Z,1021.7
2019-02-19T08:16:03.422Z,1021.7
2019-02-19T08:17:03.078Z,1021.6
2019-02-19T08:18:03.619Z,1021.6
2019-02-19T08:19:04.027Z,1021.6
2019-02-19T08:20:03.820Z,1021.7
2019-02-19T08:21:02.869Z,1021.6
2019-02-19T08:22:03.446Z,1021.5
2019-02-19T08:23:02.994Z,1021.5
2019-02-19T08:24:03.541Z,1021.6
2019-02-19T08:25:03.248Z,1021.6
2019-02-19T08:26:03.260Z,1021.5
2019-02-19T08:27:03.000Z,1021.6
2019-02-19T08:28:03.563Z,1021.4
2019-02-19T08:29:14.403Z,1021.4
2019-02-19T08:30:03.805Z,1021.4
2019-02-19T08:31:03.233Z,1021.5
2019-02-19T08:32:03.714Z,1021.4
2019-02-19T08:33:04.012Z,1021.4
2019-02-19T08:34:03.287Z,1021.3
2019-02-19T08:35:03.200Z,1021.3
2019-02-19T08:36:03.326Z,1021.2
2019-02-19T08:37:03.283Z,1021.2
2019-02-19T08:38:03.414Z,1021.4
2019-02-19T08:39:03.737Z,1021.4
2019-02-19T08:40:03.145Z,1021.4
2019-02-19T08:41:03.701Z,1021.4
2019-02-19T08:42:02.894Z,1021.4
2019-02-19T08:43:03.529Z,1021.4
2019-02-19T08:44:03.694Z,1021.5
2019-02-19T08:45:03.406Z,1021.4
2019-02-19T08:46:03.489Z,1021.4
2019-02-19T08:47:03.505Z,1021.4
2019-02-19T08:48:03.851Z,1021.4
2019-02-19T08:49:03.701Z,1021.3
2019-02-19T08:50:03.830Z,1021.5
2019-02-19T08:51:03.212Z,1021.4
2019-02-19T08:52:03.617Z,1021.3
2019-02-19T08:53:03.085Z,1021.5
2019-02-19T08:54:03.308Z,1021.3
2019-02-19T08:55:03.043Z,1021.4
2019-02-19T08:56:03.195Z,1021.4
2019-02-19T08:57:03.632Z,1021.5
2019-02-19T08:58:03.060Z,1021.4
2019-02-19T08:59:03.577Z,1021.5
2019-02-19T09:00:03.049Z,1021.4
2019-02-19T09:01:03.256Z,1021.3
2019-02-19T09:02:03.172Z,1021.3
2019-02-19T09:03:03.464Z,1021.4
2019-02-19T09:04:03.684Z,1021.4
2019-02-19T09:05:03.716Z,1021.3
2019-02-19T09:06:03.656Z,1021.3
2019-02-19T09:07:03.182Z,1021.4
2019-02-19T09:08:04.064Z,1021.3
2019-02-19T09:09:03.282Z,1021.2
2019-02-19T09:10:03.069Z,1021.1
2019-02-19T09:11:03.281Z,1021.2
2019-02-19T09:12:03.977Z,1021.2
2019-02-19T09:13:03.559Z,1021.2
2019-02-19T09:14:03.528Z,1021.1
2019-02-19T09:15:03.106Z,1021.2
2019-02-19T09:16:03.320Z,1021.1
2019-02-19T09:17:03.821Z,1021.2
2019-02-19T09:18:03.121Z,1021.1
2019-02-19T09:19:03.730Z,1021.1
2019-02-19T09:20:03.199Z,1021.2
2019-02-19T09:21:03.801Z,1021.2
2019-02-19T09:22:02.861Z,1021.1
2019-02-19T09:23:03.571Z,1021.1
2019-02-19T09:24:10.178Z,1021.3
2019-02-19T09:25:03.777Z,1021.1
2019-02-19T09:26:02.964Z,1021.1
2019-02-19T09:27:03.691Z,1021.1
2019-02-19T09:28:03.560Z,1021.1
2019-02-19T09:29:03.185Z,1021.1
2019-02-19T09:30:03.737Z,1021.1
2019-02-19T09:31:03.400Z,1021.1
2019-02-19T09:32:03.755Z,1021.2
2019-02-19T09:33:03.430Z,1021.2
2019-02-19T09:34:03.574Z,1021.2
2019-02-19T09:35:03.146Z,1021.2
2019-02-19T09:36:03.574Z,1021.2
2019-02-19T09:37:03.065Z,1021.1
2019-02-19T09:38:03.364Z,1021.1
2019-02-19T09:39:02.923Z,1021.1
2019-02-19T09:40:03.340Z,1021.2
2019-02-19T09:41:03.734Z,1021.1
2019-02-19T09:42:03.980Z,1021.1
2019-02-19T09:43:03.638Z,1021.1
2019-02-19T09:44:03.969Z,1021
2019-02-19T09:45:03.412Z,1020.9
2019-02-19T09:46:03.122Z,1020.9
2019-02-19T09:47:03.391Z,1020.9
2019-02-19T09:48:03.500Z,1020.9
2019-02-19T09:49:03.623Z,1021
2019-02-19T09:50:03.406Z,1021
2019-02-19T09:51:04.031Z,1020.9
2019-02-19T09:52:03.133Z,1021
2019-02-19T09:53:03.888Z,1021
2019-02-19T09:54:03.392Z,1020.9
2019-02-19T09:55:03.749Z,1021
2019-02-19T09:56:03.096Z,1020.9
2019-02-19T09:57:03.561Z,1021
2019-02-19T09:58:03.270Z,1020.9
2019-02-19T09:59:03.661Z,1020.9
2019-02-19T10:00:03.417Z,1020.8
2019-02-19T10:01:03.136Z,1020.8
2019-02-19T10:02:03.936Z,1020.7
2019-02-19T10:03:03.528Z,1020.8
2019-02-19T10:04:02.972Z,1020.8
2019-02-19T10:05:03.738Z,1020.7
2019-02-19T10:06:02.973Z,1020.8
2019-02-19T10:07:03.699Z,1020.7
2019-02-19T10:08:03.123Z,1020.6
2019-02-19T10:09:03.598Z,1020.6
2019-02-19T10:10:03.975Z,1020.6
2019-02-19T10:11:03.423Z,1020.6
2019-02-19T10:12:03.030Z,1020.7
2019-02-19T10:13:03.533Z,1020.6
2019-02-19T10:14:03.734Z,1020.7
2019-02-19T10:15:04.022Z,1020.6
2019-02-19T10:16:03.772Z,1020.4
2019-02-19T10:17:03.450Z,1020.4
2019-02-19T10:18:10.938Z,1020.5
2019-02-19T10:19:02.857Z,1020.4
2019-02-19T10:20:03.480Z,1020.4
2019-02-19T10:21:03.896Z,1020.4
2019-02-19T10:22:03.292Z,1020.4
2019-02-19T10:23:03.476Z,1020.4
2019-02-19T10:24:03.026Z,1020.4
2019-02-19T10:25:03.929Z,1020.4
2019-02-19T10:26:03.954Z,1020.4
2019-02-19T10:27:03.240Z,1020.4
2019-02-19T10:28:03.618Z,1020.4
2019-02-19T10:29:03.513Z,1020.4
2019-02-19T10:30:03.959Z,1020.4
2019-02-19T10:31:03.337Z,1020.5
2019-02-19T10:32:03.847Z,1020.3
2019-02-19T10:33:04.029Z,1020.4
2019-02-19T10:34:03.565Z,1020.4
2019-02-19T10:35:03.204Z,1020.5
2019-02-19T10:36:03.672Z,1020.3
2019-02-19T10:37:02.928Z,1020.3
2019-02-19T10:38:03.577Z,1020.3
2019-02-19T10:39:03.510Z,1020.3
2019-02-19T10:40:03.608Z,1020.3
2019-02-19T10:41:03.079Z,1020.4
2019-02-19T10:42:03.207Z,1020.3
2019-02-19T10:43:03.789Z,1020.3
2019-02-19T10:44:02.974Z,1020.3
2019-02-19T10:45:03.670Z,1020.3
2019-02-19T10:46:03.188Z,1020.2
2019-02-19T10:47:03.787Z,1020.2
2019-02-19T10:48:02.987Z,1020.1
2019-02-19T10:49:03.773Z,1020.1
2019-02-19T10:50:03.356Z,1020
2019-02-19T10:51:03.432Z,1020
2019-02-19T10:52:03.067Z,1020.1
2019-02-19T10:53:03.530Z,1020
2019-02-19T10:54:03.986Z,1020.1
2019-02-19T10:55:03.833Z,1020
2019-02-19T10:56:03.840Z,1020
2019-02-19T10:57:03.410Z,1019.8
2019-02-19T10:58:03.852Z,1020
2019-02-19T10:59:03.374Z,1020
2019-02-19T11:00:03.736Z,1020
2019-02-19T11:01:03.641Z,1019.9
2019-02-19T11:02:03.932Z,1019.9
2019-02-19T11:03:03.687Z,1019.9
2019-02-19T11:04:03.779Z,1019.9
2019-02-19T11:05:03.341Z,1019.8
2019-02-19T11:06:04.025Z,1019.8
2019-02-19T11:07:03.334Z,1019.9
2019-02-19T11:08:03.684Z,1019.8
2019-02-19T11:09:03.525Z,1019.7
2019-02-19T11:10:03.797Z,1019.7
2019-02-19T11:11:03.187Z,1019.7
2019-02-19T11:12:03.106Z,1019.7
2019-02-19T11:13:03.920Z,1019.7
2019-02-19T11:14:03.656Z,1019.7
2019-02-19T11:15:03.941Z,1019.7
2019-02-19T11:16:03.795Z,1019.7
2019-02-19T11:17:03.353Z,1019.7
2019-02-19T11:18:04.200Z,1019.8
2019-02-19T11:19:03.404Z,1019.7
2019-02-19T11:20:03.835Z,1019.8
2019-02-19T11:21:03.259Z,1019.8
2019-02-19T11:22:03.178Z,1019.8
2019-02-19T11:23:03.630Z,1019.8
2019-02-19T11:24:03.262Z,1019.7
2019-02-19T11:25:03.559Z,1019.7
2019-02-19T11:26:03.109Z,1019.7
2019-02-19T11:27:03.645Z,1019.9
2019-02-19T11:28:03.037Z,1019.7
2019-02-19T11:29:03.798Z,1019.7
2019-02-19T11:30:03.043Z,1019.6
2019-02-19T11:31:03.760Z,1019.6
2019-02-19T11:32:03.015Z,1019.6
2019-02-19T11:33:03.824Z,1019.7
2019-02-19T11:34:03.876Z,1019.7
2019-02-19T11:35:03.454Z,1019.8
2019-02-19T11:36:03.764Z,1019.6
2019-02-19T11:37:03.456Z,1019.7
2019-02-19T11:38:03.738Z,1019.7
2019-02-19T11:39:03.293Z,1019.5
2019-02-19T11:40:03.467Z,1019.5
2019-02-19T11:41:04.069Z,1019.5
2019-02-19T11:42:05.171Z,1019.6
2019-02-19T11:43:03.993Z,1019.6
2019-02-19T11:44:03.621Z,1019.5
2019-02-19T11:45:03.103Z,1019.5
2019-02-19T11:46:03.394Z,1019.4
2019-02-19T11:47:03.700Z,1019.5
2019-02-19T11:48:03.346Z,1019.4
2019-02-19T11:49:02.927Z,1019.4
2019-02-19T11:50:03.405Z,1019.4
2019-02-19T11:51:03.052Z,1019.5
2019-02-19T11:52:03.226Z,1019.4
2019-02-19T11:53:03.484Z,1019.3
2019-02-19T11:54:03.324Z,1019.4
2019-02-19T11:55:03.690Z,1019.4
2019-02-19T11:56:02.934Z,1019.3
2019-02-19T11:57:03.280Z,1019.3
2019-02-19T11:58:03.928Z,1019.2
2019-02-19T11:59:03.308Z,1019.2
2019-02-19T12:00:03.620Z,1019.3
2019-02-19T12:01:03.118Z,1019.3
2019-02-19T12:02:03.577Z,1019.2
2019-02-19T12:03:03.593Z,1019.2
2019-02-19T12:04:03.027Z,1019.3
2019-02-19T12:05:03.601Z,1019.2
2019-02-19T12:06:03.765Z,1019.2
2019-02-19T12:07:03.040Z,1019.2
2019-02-19T12:08:04.041Z,1019.3
2019-02-19T12:09:03.124Z,1019.3
2019-02-19T12:10:04.053Z,1019.3
2019-02-19T12:11:03.326Z,1019.2
2019-02-19T12:12:03.738Z,1019.3
2019-02-19T12:13:03.743Z,1019.2
2019-02-19T12:14:03.173Z,1019.2
2019-02-19T12:15:03.992Z,1019.1
2019-02-19T12:16:03.573Z,1019.1
2019-02-19T12:17:03.145Z,1019.2
2019-02-19T12:18:03.222Z,1019
2019-02-19T12:19:03.859Z,1019
2019-02-19T12:20:03.077Z,1019
2019-02-19T12:21:03.345Z,1019.1
2019-02-19T12:22:03.327Z,1019.1
2019-02-19T12:23:03.641Z,1019
2019-02-19T12:24:03.785Z,1019
2019-02-19T12:25:02.976Z,1019.1
2019-02-19T12:26:03.613Z,1019
2019-02-19T12:27:03.893Z,1019
2019-02-19T12:28:03.447Z,1019.1
2019-02-19T12:29:03.194Z,1019.2
2019-02-19T12:30:03.585Z,1019.1
2019-02-19T12:31:03.798Z,1019.1
2019-02-19T12:32:03.369Z,1019.1